CheckWX is a tool to help pilots better visualize weather data.  It is not intended as a substitute for an official pre-flight weather briefing.

03:30:19 UTC

PTRO TAF
Babelthuap / Koror Airport
Babelthuap Island, Palau
PTRO 300520Z 3006/3106 08010KT P6SM VCSH SCT016 SCT050 TEMPO 3008/3012 5SM -SHRA BKN016

May-30@
06:00 UTC

May-30 @ 06:00 UTC

May-31@
06:00 UTC

May-31 @ 06:00 UTC

TAF PTRO 300520Z 3006/3106 08010KT P6SM VCSH SCT016 SCT050
Wind
  • 080° at 10 KTS
Conditions
Area Showers
Cloud Levels
  • Scattered at 1,600' AGL
  • Scattered at 5,000' AGL

May-30@
08:00 UTC

May-30 @ 08:00 UTC

May-30@
12:00 UTC

May-30 @ 12:00 UTC

TEMPO 3008/3012 5SM -SHRA BKN016

Expired

Conditions
Light Showers, Rain
Cloud Levels
  • Broken at 1,600' AGL